createdAt,value
2023-03-23T15:58:12.456Z,93448.66
2023-03-23T16:00:42.955Z,93456.53
2023-03-23T16:03:30.993Z,93454.94
2023-03-23T16:06:03.805Z,93451.53
2023-03-23T16:08:32.361Z,93463.63
2023-03-23T16:11:00.549Z,93458.81
2023-03-23T16:13:28.713Z,93467.91
2023-03-23T16:15:56.885Z,93469.81
2023-03-23T16:18:25.192Z,93467.69
2023-03-23T16:20:53.674Z,93469.28
2023-03-23T16:23:22.068Z,93467.72
2023-03-23T16:25:51.224Z,93461.53
2023-03-23T16:28:21.066Z,93463.16
2023-03-23T16:30:49.578Z,93475.72
2023-03-23T16:33:17.770Z,93477.56
2023-03-23T16:35:46.405Z,93475.69
2023-03-23T16:38:16.950Z,93462.03
2023-03-23T16:40:46.944Z,93470.06
2023-03-23T16:43:15.704Z,93474.34
2023-03-23T16:45:45.665Z,93469.25
2023-03-23T16:48:16.589Z,93472.97
2023-03-23T16:50:45.908Z,93469.44
2023-03-23T16:53:14.304Z,93477.75
2023-03-23T16:55:44.696Z,93474.00
2023-03-23T16:58:16.989Z,93476.13
2023-03-23T17:00:49.626Z,93475.22
2023-03-23T17:03:20.031Z,93485.63
2023-03-23T17:05:50.392Z,93484.72
2023-03-23T17:08:20.124Z,93498.59
2023-03-23T17:10:48.791Z,93502.06
2023-03-23T17:13:17.897Z,93504.63
2023-03-23T17:15:47.512Z,93500.09
2023-03-23T17:18:16.804Z,93501.91
2023-03-23T17:20:45.197Z,93509.88
2023-03-23T17:23:13.625Z,93512.47
2023-03-23T17:25:42.581Z,93508.13
2023-03-23T17:28:10.969Z,93511.50
2023-03-23T17:30:44.786Z,93521.25
2023-03-23T17:33:14.452Z,93521.38
2023-03-23T17:35:44.801Z,93524.50
2023-03-23T17:38:13.949Z,93528.34
2023-03-23T17:40:42.136Z,93492.78
2023-03-23T17:43:10.614Z,93542.94
2023-03-23T17:45:39.046Z,93552.81
2023-03-23T17:48:08.186Z,93551.66
2023-03-23T17:50:37.076Z,93540.25
2023-03-23T17:53:05.850Z,93551.78
2023-03-23T17:55:34.230Z,93559.59
2023-03-23T17:58:02.413Z,93563.22
2023-03-23T18:00:30.826Z,93560.56
2023-03-23T18:02:59.303Z,93564.34
2023-03-23T18:05:28.338Z,93560.88
2023-03-23T18:07:56.554Z,93568.72
2023-03-23T18:10:24.936Z,93574.88
2023-03-23T18:12:53.379Z,93577.84
2023-03-23T18:15:22.281Z,93588.72
2023-03-23T18:17:57.684Z,93597.94
2023-03-23T18:20:26.095Z,93596.88
2023-03-23T18:22:54.318Z,93597.03
2023-03-23T18:25:23.209Z,93598.41
2023-03-23T18:27:52.191Z,93601.94
2023-03-23T18:30:20.830Z,93604.44
2023-03-23T18:32:49.083Z,93604.72
2023-03-23T18:35:17.749Z,93611.91
2023-03-23T18:37:48.191Z,93614.00
2023-03-23T18:40:17.918Z,93610.94
2023-03-23T18:42:46.897Z,93613.88
2023-03-23T18:45:15.773Z,93625.25
2023-03-23T18:47:44.509Z,93609.22
2023-03-23T18:50:13.236Z,93609.34
2023-03-23T18:52:42.537Z,93621.22
2023-03-23T18:55:11.143Z,93621.31
2023-03-23T18:57:40.701Z,93619.06
2023-03-23T19:00:10.552Z,93627.34
2023-03-23T19:02:42.759Z,93635.66
2023-03-23T19:05:11.987Z,93631.63
2023-03-23T19:07:40.072Z,93632.06
2023-03-23T19:10:08.436Z,93631.28
2023-03-23T19:12:37.173Z,93632.56
2023-03-23T19:15:07.018Z,93633.13
2023-03-23T19:17:36.929Z,93632.69
2023-03-23T19:20:14.551Z,93647.22
2023-03-23T19:22:44.435Z,93644.91
2023-03-23T19:25:12.853Z,93639.47
2023-03-23T19:28:20.871Z,93647.19
2023-03-23T19:30:31.563Z,93650.66
2023-03-23T19:33:00.214Z,93647.78
2023-03-23T19:35:29.945Z,93643.75
2023-03-23T19:37:58.866Z,93656.06
2023-03-23T19:40:39.086Z,93655.41
2023-03-23T19:43:10.849Z,93654.69
2023-03-23T19:45:42.299Z,93655.59
2023-03-23T19:48:10.835Z,93664.69
2023-03-23T19:50:40.740Z,93676.09
2023-03-23T19:53:09.711Z,93674.56
2023-03-23T19:55:38.838Z,93673.59
2023-03-23T19:58:07.525Z,93680.53
2023-03-23T20:00:36.528Z,93687.31
2023-03-23T20:03:05.135Z,93684.19
2023-03-23T20:05:37.241Z,93688.69
2023-03-23T20:08:07.523Z,93683.09
2023-03-23T20:10:36.439Z,93691.84
2023-03-23T20:13:05.867Z,93693.13
2023-03-23T20:15:34.948Z,93700.78
2023-03-23T20:18:04.835Z,93705.19
2023-03-23T20:20:36.821Z,93703.28
2023-03-23T20:23:08.172Z,93690.72
2023-03-23T20:25:36.980Z,93706.03
2023-03-23T20:28:06.612Z,93705.78
2023-03-23T20:30:35.674Z,93705.22
2023-03-23T20:33:04.160Z,93665.31
2023-03-23T20:35:32.626Z,93696.09
2023-03-23T20:38:00.828Z,93693.50
2023-03-23T20:40:30.053Z,93691.44
2023-03-23T20:42:58.213Z,93704.09
2023-03-23T20:45:26.854Z,93698.75
2023-03-23T20:47:55.264Z,93699.97
2023-03-23T20:50:24.081Z,93698.16
2023-03-23T20:52:52.278Z,93688.34
2023-03-23T20:55:20.636Z,93685.34
2023-03-23T20:57:49.794Z,93689.03
2023-03-23T21:00:18.682Z,93689.81
2023-03-23T21:02:49.890Z,93688.44
2023-03-23T21:05:18.301Z,93690.31
2023-03-23T21:07:47.229Z,93684.22
2023-03-23T21:10:15.588Z,93687.63
2023-03-23T21:12:43.718Z,93693.06
2023-03-23T21:15:13.124Z,93693.75
2023-03-23T21:17:41.292Z,93691.78
2023-03-23T21:20:11.352Z,93694.69
2023-03-23T21:22:39.790Z,93691.69
2023-03-23T21:25:08.776Z,93695.19
2023-03-23T21:27:37.868Z,93693.22
2023-03-23T21:30:06.738Z,93688.25
2023-03-23T21:32:34.740Z,93699.91
2023-03-23T21:35:03.015Z,93691.03
2023-03-23T21:37:31.220Z,93685.72
2023-03-23T21:40:02.512Z,93686.97
2023-03-23T21:42:31.293Z,93691.69
2023-03-23T21:45:06.384Z,93685.59
2023-03-23T21:47:34.778Z,93690.34
2023-03-23T21:50:04.874Z,93690.56
2023-03-23T21:52:33.713Z,93692.53
2023-03-23T21:55:05.257Z,93694.97
2023-03-23T21:57:34.581Z,93698.22
2023-03-23T22:00:02.180Z,93693.38
2023-03-23T22:02:31.857Z,93694.44
2023-03-23T22:04:59.955Z,93688.88
2023-03-23T22:07:31.432Z,93697.97
2023-03-23T22:10:00.332Z,93703.28
2023-03-23T22:12:28.484Z,93704.75
2023-03-23T22:14:56.435Z,93700.53
2023-03-23T22:17:24.478Z,93696.50
2023-03-23T22:19:52.384Z,93703.28
2023-03-23T22:22:20.482Z,93703.72
2023-03-23T22:24:48.410Z,93699.84
2023-03-23T22:27:17.215Z,93696.38
2023-03-23T22:29:45.200Z,93688.69
2023-03-23T22:32:13.505Z,93702.69
2023-03-23T22:34:41.463Z,93699.84
2023-03-23T22:37:09.602Z,93700.66
2023-03-23T22:39:37.544Z,93696.00
2023-03-23T22:42:05.614Z,93699.44
2023-03-23T22:44:35.809Z,93686.22
2023-03-23T22:47:03.865Z,93690.88
2023-03-23T22:49:32.925Z,93694.56
2023-03-23T22:52:03.981Z,93691.91
2023-03-23T22:54:31.833Z,93692.75
2023-03-23T22:56:59.958Z,93697.81
2023-03-23T22:59:27.909Z,93694.91
2023-03-23T23:01:55.956Z,93687.19
2023-03-23T23:04:24.162Z,93698.97
2023-03-23T23:07:00.234Z,93709.13
2023-03-23T23:09:35.208Z,93703.09
2023-03-23T23:12:03.086Z,93703.31
2023-03-23T23:14:31.170Z,93702.53
2023-03-23T23:16:59.513Z,93698.66
2023-03-23T23:19:27.681Z,93697.47
2023-03-23T23:21:56.004Z,93708.06
2023-03-23T23:26:37.251Z,93697.34
2023-03-23T23:29:05.698Z,93707.50
2023-03-23T23:31:34.841Z,93699.56
2023-03-23T23:34:03.913Z,93706.06
2023-03-23T23:36:32.549Z,93700.00
2023-03-23T23:39:02.597Z,93695.13
2023-03-23T23:41:30.982Z,93695.97
2023-03-23T23:44:00.101Z,93693.34
2023-03-23T23:46:30.830Z,93698.22
2023-03-23T23:49:01.220Z,93690.91
2023-03-23T23:51:29.626Z,93678.50
2023-03-23T23:54:01.875Z,93675.88
2023-03-23T23:56:30.562Z,93672.25
2023-03-23T23:58:58.940Z,93667.19
